Time;durP1;ratioP1;P1;durP2;ratioP2;P2;SDS_P1;SDS_P2;PMS_P1;PMS_P2;Temp;Humidity;BMP_temperature;BMP_pressure;BME280_temperature;BME280_humidity;BME280_pressure;Samples;Min_cycle;Max_cycle;Signal;HPM_P1;HPM_P2
2023/12/11 00:00:17;;;;;;;2.33;1.40;;;14.80;98.00;;;;;;4979348;28;20180;-77
2023/12/11 00:02:43;;;;;;;3.17;1.50;;;14.80;98.00;;;;;;4980160;28;20208;-77
2023/12/11 00:05:09;;;;;;;3.67;1.70;;;14.80;98.00;;;;;;4981212;28;20490;-77
2023/12/11 00:07:35;;;;;;;3.97;1.50;;;14.80;98.00;;;;;;4982520;28;20243;-77
2023/12/11 00:10:01;;;;;;;3.80;1.50;;;14.80;98.10;;;;;;4983393;28;20259;-77
2023/12/11 00:12:29;;;;;;;2.43;1.33;;;14.80;98.10;;;;;;4983698;28;20535;-77
2023/12/11 00:14:55;;;;;;;2.80;1.67;;;14.80;98.10;;;;;;4983611;28;20190;-77
2023/12/11 00:17:21;;;;;;;3.20;1.63;;;14.80;98.10;;;;;;4983206;28;20177;-77
2023/12/11 00:19:46;;;;;;;2.70;1.53;;;14.80;98.10;;;;;;4983927;28;20568;-77
2023/12/11 00:22:13;;;;;;;3.10;1.50;;;14.80;98.20;;;;;;4984110;28;20183;-78
2023/12/11 00:24:38;;;;;;;2.90;1.40;;;14.80;98.10;;;;;;4983944;28;20194;-78
2023/12/11 00:27:04;;;;;;;3.50;1.40;;;14.80;98.20;;;;;;4984462;28;20233;-79
2023/12/11 00:29:30;;;;;;;3.00;1.50;;;14.80;98.20;;;;;;4983713;28;20274;-79
2023/12/11 00:31:59;;;;;;;2.77;1.57;;;14.80;98.20;;;;;;4983712;28;20169;-79
2023/12/11 00:34:24;;;;;;;2.00;1.40;;;14.80;98.20;;;;;;4983987;28;20274;-78
2023/12/11 00:36:53;;;;;;;2.47;1.57;;;14.80;98.20;;;;;;4982836;28;20327;-78
2023/12/11 00:39:19;;;;;;;2.30;1.60;;;14.80;98.30;;;;;;4982394;28;20378;-78
2023/12/11 00:41:51;;;;;;;3.17;1.60;;;14.80;98.20;;;;;;4982918;28;20173;-78
2023/12/11 00:44:17;;;;;;;3.23;1.60;;;14.80;98.30;;;;;;4983460;28;20204;-79
2023/12/11 00:51:12;;;;;;;2.93;1.30;;;14.80;98.30;;;;;;4939263;29;20660;-83
2023/12/11 00:53:37;;;;;;;3.10;1.40;;;14.80;98.30;;;;;;4942221;29;20490;-81
2023/12/11 00:56:03;;;;;;;3.70;1.50;;;14.80;98.30;;;;;;4941728;29;20176;-79
2023/12/11 00:58:32;;;;;;;5.30;1.77;;;14.80;98.40;;;;;;4985653;28;20188;-80
2023/12/11 01:00:58;;;;;;;3.77;1.73;;;14.80;98.40;;;;;;4985332;28;20174;-80
2023/12/11 01:03:24;;;;;;;4.87;1.60;;;14.80;98.40;;;;;;4985524;28;20182;-80
2023/12/11 01:05:49;;;;;;;4.30;1.80;;;14.80;98.40;;;;;;4985448;28;20214;-80
2023/12/11 01:08:15;;;;;;;2.40;1.40;;;14.80;98.40;;;;;;4985390;28;20200;-80
2023/12/11 01:10:50;;;;;;;2.33;1.40;;;14.80;98.40;;;;;;4984493;28;20166;-80
2023/12/11 01:13:16;;;;;;;4.03;1.60;;;14.80;98.40;;;;;;4985092;28;20188;-80
2023/12/11 01:15:42;;;;;;;3.70;1.50;;;14.80;98.40;;;;;;4984346;28;20620;-80
2023/12/11 01:18:07;;;;;;;2.13;1.30;;;14.70;98.40;;;;;;4984420;28;20208;-80
2023/12/11 01:20:33;;;;;;;3.70;1.60;;;14.80;98.40;;;;;;4983263;28;20182;-78
2023/12/11 01:22:59;;;;;;;3.50;1.77;;;14.80;98.40;;;;;;4981796;28;20179;-78
2023/12/11 01:25:28;;;;;;;3.30;1.47;;;14.80;98.40;;;;;;4981885;28;20204;-77
2023/12/11 01:27:53;;;;;;;3.23;1.53;;;14.80;98.40;;;;;;4982739;28;20398;-78
2023/12/11 01:30:19;;;;;;;3.73;1.50;;;14.70;98.30;;;;;;4982293;28;20563;-77
2023/12/11 01:32:46;;;;;;;2.23;1.30;;;14.80;98.40;;;;;;4982414;28;20423;-78
2023/12/11 01:35:12;;;;;;;3.90;1.80;;;14.80;98.40;;;;;;4982800;28;20180;-77
2023/12/11 01:37:38;;;;;;;3.37;1.57;;;14.80;98.40;;;;;;4983101;28;20191;-79
2023/12/11 01:40:05;;;;;;;2.87;1.47;;;14.80;98.40;;;;;;4984735;28;20264;-79
2023/12/11 01:42:41;;;;;;;3.03;1.40;;;14.80;98.40;;;;;;4984826;28;20171;-79
2023/12/11 01:45:07;;;;;;;5.70;1.70;;;14.80;98.40;;;;;;4983612;28;20208;-79
2023/12/11 01:47:33;;;;;;;3.67;1.70;;;14.80;98.40;;;;;;4980824;28;20199;-77
2023/12/11 01:49:59;;;;;;;4.23;1.60;;;14.70;98.40;;;;;;4982710;28;20222;-80
2023/12/11 01:52:28;;;;;;;3.33;1.73;;;14.80;98.40;;;;;;4982488;28;20173;-80
2023/12/11 01:54:54;;;;;;;3.67;1.47;;;14.80;98.40;;;;;;4983495;28;20223;-80
2023/12/11 01:57:20;;;;;;;5.20;1.97;;;14.70;98.40;;;;;;4984278;28;20176;-80
2023/12/11 01:59:46;;;;;;;2.73;1.60;;;14.80;98.40;;;;;;4985085;28;20218;-80
2023/12/11 02:02:12;;;;;;;3.63;1.43;;;14.80;98.50;;;;;;4983442;28;20186;-80
2023/12/11 02:04:40;;;;;;;3.60;1.90;;;14.70;98.40;;;;;;4981552;28;20210;-80
2023/12/11 02:07:06;;;;;;;3.57;1.60;;;14.70;98.50;;;;;;4982212;28;20172;-81
2023/12/11 02:09:32;;;;;;;4.37;1.70;;;14.80;98.50;;;;;;4982756;28;20260;-80
2023/12/11 02:12:05;;;;;;;4.40;1.80;;;14.70;98.50;;;;;;4982166;28;20569;-79
2023/12/11 02:14:31;;;;;;;3.53;1.80;;;14.70;98.50;;;;;;4982308;28;20729;-76
2023/12/11 02:16:57;;;;;;;3.57;1.70;;;14.80;98.50;;;;;;4981632;28;20170;-78
2023/12/11 02:19:23;;;;;;;3.37;1.43;;;14.70;98.40;;;;;;4981847;28;20179;-77
2023/12/11 02:22:01;;;;;;;4.47;1.60;;;14.70;98.50;;;;;;4981443;28;20476;-77
2023/12/11 02:24:32;;;;;;;4.97;1.90;;;14.80;98.50;;;;;;4981789;28;20232;-77
2023/12/11 02:26:58;;;;;;;3.57;1.60;;;14.80;98.50;;;;;;4981159;28;20421;-77
2023/12/11 02:29:24;;;;;;;3.97;1.73;;;14.70;98.50;;;;;;4980938;28;20169;-76
2023/12/11 02:31:56;;;;;;;3.97;1.80;;;14.80;98.50;;;;;;4980572;28;20177;-76
2023/12/11 02:34:22;;;;;;;4.17;1.70;;;14.70;98.50;;;;;;4981032;28;20170;-76
2023/12/11 02:36:48;;;;;;;4.67;1.70;;;14.70;98.50;;;;;;4980792;28;20171;-76
2023/12/11 02:39:14;;;;;;;6.63;1.70;;;14.80;98.60;;;;;;4980819;28;20184;-76
2023/12/11 02:41:39;;;;;;;3.87;1.70;;;14.70;98.60;;;;;;4981034;28;20223;-76
2023/12/11 02:44:38;;;;;;;4.97;1.90;;;14.70;98.70;;;;;;4981254;28;20198;-76
2023/12/11 02:47:04;;;;;;;5.77;2.20;;;14.70;98.60;;;;;;4981348;28;20179;-76
2023/12/11 02:49:29;;;;;;;3.87;1.87;;;14.70;98.70;;;;;;4981015;28;20169;-76
2023/12/11 02:51:55;;;;;;;5.57;1.90;;;14.70;98.60;;;;;;4981139;28;20272;-76
2023/12/11 02:54:21;;;;;;;5.10;1.60;;;14.70;98.70;;;;;;4982028;28;20201;-79
2023/12/11 02:56:46;;;;;;;4.70;1.93;;;14.70;98.70;;;;;;4981387;28;20175;-77
2023/12/11 02:59:12;;;;;;;3.50;1.80;;;14.70;98.70;;;;;;4980509;28;20227;-77
2023/12/11 03:01:40;;;;;;;3.73;1.90;;;14.70;98.70;;;;;;4980980;28;20191;-77
2023/12/11 03:04:06;;;;;;;3.37;1.77;;;14.70;98.70;;;;;;4980843;28;20233;-77
2023/12/11 03:06:32;;;;;;;4.10;1.60;;;14.70;98.70;;;;;;4980706;28;20186;-76
2023/12/11 03:09:01;;;;;;;4.37;1.80;;;14.70;98.80;;;;;;4981111;28;20182;-76
2023/12/11 03:11:27;;;;;;;4.13;1.90;;;14.70;98.70;;;;;;4981024;28;20167;-78
2023/12/11 03:13:53;;;;;;;4.47;1.60;;;14.70;98.70;;;;;;4981476;28;20178;-78
2023/12/11 03:16:19;;;;;;;4.87;1.73;;;14.70;98.80;;;;;;4981983;28;20175;-78
2023/12/11 03:18:44;;;;;;;5.37;1.87;;;14.70;98.70;;;;;;4983172;28;20178;-79
2023/12/11 03:21:17;;;;;;;5.50;2.00;;;14.70;98.80;;;;;;4981497;28;20196;-76
2023/12/11 03:23:43;;;;;;;3.67;1.70;;;14.70;98.80;;;;;;4980972;28;20172;-76
2023/12/11 03:26:09;;;;;;;4.47;1.60;;;14.70;98.80;;;;;;4980977;28;20236;-76
2023/12/11 03:28:37;;;;;;;5.57;1.70;;;14.70;98.80;;;;;;4980673;28;20555;-76
2023/12/11 03:31:05;;;;;;;5.67;2.00;;;14.70;98.80;;;;;;4979929;28;20640;-76
2023/12/11 03:33:31;;;;;;;4.87;1.77;;;14.70;99.10;;;;;;4980747;28;20212;-76
2023/12/11 03:35:59;;;;;;;5.07;1.80;;;14.70;98.80;;;;;;4980979;28;20227;-77
2023/12/11 03:38:25;;;;;;;6.63;1.80;;;14.70;98.80;;;;;;4980911;28;20196;-79
2023/12/11 03:41:20;;;;;;;5.40;1.80;;;14.70;98.80;;;;;;5013523;28;20552;-79
2023/12/11 03:43:49;;;;;;;7.93;1.90;;;14.70;98.80;;;;;;5004818;28;20172;-76
2023/12/11 03:46:15;;;;;;;4.43;1.90;;;14.70;98.80;;;;;;5004033;28;20181;-78
2023/12/11 03:48:41;;;;;;;6.10;1.70;;;14.70;98.80;;;;;;5004569;28;20164;-80
2023/12/11 03:51:08;;;;;;;4.93;1.63;;;14.70;98.80;;;;;;5005335;28;20195;-80
2023/12/11 03:53:34;;;;;;;6.50;1.70;;;14.70;98.80;;;;;;5004619;28;20190;-77
2023/12/11 03:55:59;;;;;;;6.93;2.00;;;14.70;98.80;;;;;;5002624;28;20203;-77
2023/12/11 03:58:25;;;;;;;3.40;1.60;;;14.70;98.80;;;;;;5003046;28;20272;-76
2023/12/11 04:00:51;;;;;;;4.70;1.67;;;14.70;98.80;;;;;;5003177;28;20178;-77
2023/12/11 04:03:18;;;;;;;3.70;1.67;;;14.70;98.80;;;;;;5003353;28;20192;-77
2023/12/11 04:05:44;;;;;;;5.27;1.80;;;14.70;98.80;;;;;;5003194;28;20205;-77
2023/12/11 04:08:09;;;;;;;5.13;1.53;;;14.70;98.80;;;;;;5003257;28;20186;-77
2023/12/11 04:10:35;;;;;;;3.33;1.40;;;14.70;98.80;;;;;;5003369;28;20167;-77
2023/12/11 04:13:04;;;;;;;5.33;1.67;;;14.70;98.90;;;;;;5002659;28;20175;-77
2023/12/11 04:15:30;;;;;;;4.97;1.67;;;14.70;98.80;;;;;;5003040;28;20245;-77
2023/12/11 04:17:58;;;;;;;4.43;1.73;;;14.70;98.70;;;;;;5002657;28;20657;-77
2023/12/11 04:20:24;;;;;;;3.97;1.83;;;14.70;98.70;;;;;;5002958;28;20261;-77
2023/12/11 04:22:50;;;;;;;6.93;1.90;;;14.70;98.70;;;;;;5001631;28;20232;-77
2023/12/11 04:25:20;;;;;;;4.00;1.60;;;14.70;98.70;;;;;;5000463;28;20202;-77
2023/12/11 04:27:46;;;;;;;4.27;1.77;;;14.60;98.70;;;;;;5000919;28;20174;-77
2023/12/11 04:30:12;;;;;;;3.77;1.40;;;14.60;98.70;;;;;;5000664;28;20174;-77
2023/12/11 04:32:38;;;;;;;5.73;1.90;;;14.60;98.70;;;;;;5000781;28;20255;-77
2023/12/11 04:35:04;;;;;;;4.00;1.63;;;14.60;98.80;;;;;;5018501;28;20228;-77
2023/12/11 04:37:31;;;;;;;5.20;1.77;;;14.60;98.90;;;;;;5002360;28;20178;-77
2023/12/11 04:39:57;;;;;;;4.67;1.80;;;14.60;99.00;;;;;;5002535;28;20574;-77
2023/12/11 04:42:23;;;;;;;4.33;1.70;;;14.70;98.80;;;;;;5002666;28;20173;-77
2023/12/11 04:44:49;;;;;;;5.60;2.00;;;14.70;98.80;;;;;;5003060;28;20230;-76
2023/12/11 04:47:16;;;;;;;4.37;1.70;;;14.70;98.70;;;;;;5002943;28;20175;-76
2023/12/11 04:49:42;;;;;;;5.30;1.60;;;14.70;98.60;;;;;;5002122;28;20172;-76
2023/12/11 04:52:08;;;;;;;3.63;1.90;;;14.80;98.80;;;;;;5000858;28;20227;-76
2023/12/11 04:54:34;;;;;;;4.57;1.87;;;14.80;98.40;;;;;;5001749;28;20635;-78
2023/12/11 04:57:00;;;;;;;3.37;1.53;;;14.90;98.40;;;;;;5002121;28;20280;-78
2023/12/11 04:59:26;;;;;;;4.20;1.57;;;14.90;98.20;;;;;;5001663;28;20162;-77
2023/12/11 05:01:52;;;;;;;3.30;1.60;;;15.00;98.10;;;;;;5001697;28;20171;-77
2023/12/11 05:04:24;;;;;;;3.67;1.70;;;15.00;97.90;;;;;;5001068;28;20216;-78
2023/12/11 05:06:50;;;;;;;6.27;1.80;;;15.00;97.90;;;;;;5001465;28;20178;-78
2023/12/11 05:09:16;;;;;;;3.70;1.80;;;15.00;97.80;;;;;;5001942;28;20585;-78
2023/12/11 05:11:41;;;;;;;3.83;1.50;;;15.00;97.90;;;;;;5001877;28;20175;-78
2023/12/11 05:14:07;;;;;;;4.03;1.70;;;14.90;98.00;;;;;;5001013;28;20708;-75
2023/12/11 05:16:35;;;;;;;2.37;1.30;;;14.90;98.10;;;;;;5000588;28;20170;-76
2023/12/11 05:19:00;;;;;;;3.47;1.50;;;14.90;98.20;;;;;;5001589;28;20189;-76
2023/12/11 05:21:26;;;;;;;3.63;1.40;;;14.90;98.30;;;;;;4999263;28;20174;-79
2023/12/11 05:23:53;;;;;;;3.10;1.43;;;14.90;98.40;;;;;;5000826;28;20211;-77
2023/12/11 05:26:34;;;;;;;4.87;1.80;;;14.90;98.40;;;;;;5000684;28;20443;-77
2023/12/11 05:29:00;;;;;;;5.00;1.77;;;14.90;98.60;;;;;;5000511;28;20170;-78
2023/12/11 05:31:26;;;;;;;3.97;1.70;;;14.80;98.60;;;;;;5000598;28;20463;-77
2023/12/11 05:33:58;;;;;;;3.17;1.37;;;14.80;98.60;;;;;;5016993;28;20176;-88
2023/12/11 05:36:27;;;;;;;5.40;1.47;;;14.80;98.60;;;;;;4999841;28;20209;-77
2023/12/11 05:38:53;;;;;;;4.80;1.60;;;14.80;98.60;;;;;;5000227;28;20561;-77
2023/12/11 05:41:19;;;;;;;3.20;1.40;;;14.80;98.70;;;;;;4999790;28;20187;-77
2023/12/11 05:43:45;;;;;;;4.57;1.67;;;14.80;98.80;;;;;;4996063;28;20415;-78
2023/12/11 05:46:11;;;;;;;3.83;1.40;;;14.80;98.70;;;;;;4994550;28;20239;-78
2023/12/11 05:48:37;;;;;;;8.73;1.50;;;14.80;98.70;;;;;;4998576;28;20171;-78
2023/12/11 05:51:03;;;;;;;5.10;1.47;;;14.80;98.80;;;;;;4996081;28;20614;-77
2023/12/11 05:53:29;;;;;;;6.13;1.80;;;14.80;98.80;;;;;;4995243;28;20181;-77
2023/12/11 05:55:55;;;;;;;3.60;1.60;;;14.80;98.80;;;;;;4994875;28;20181;-77
2023/12/11 05:58:21;;;;;;;3.33;1.40;;;14.80;98.80;;;;;;4994140;28;20178;-77
2023/12/11 06:00:47;;;;;;;3.53;1.50;;;14.80;98.80;;;;;;4993007;28;20273;-78
2023/12/11 06:03:13;;;;;;;3.50;1.60;;;14.80;98.80;;;;;;4991182;28;20636;-77
2023/12/11 06:05:38;;;;;;;2.93;1.40;;;14.70;98.90;;;;;;4994137;28;20468;-77
2023/12/11 06:08:05;;;;;;;3.77;1.50;;;14.70;98.90;;;;;;4993743;28;20173;-77
2023/12/11 06:10:31;;;;;;;3.27;1.33;;;14.70;99.10;;;;;;4994719;28;20554;-78
2023/12/11 06:12:57;;;;;;;3.60;1.40;;;14.70;99.10;;;;;;4994310;28;20230;-77
2023/12/11 06:15:23;;;;;;;3.87;1.60;;;14.70;99.10;;;;;;4992960;28;20496;-77
2023/12/11 06:17:49;;;;;;;4.27;1.50;;;14.80;99.10;;;;;;4992642;28;20375;-77
2023/12/11 06:20:15;;;;;;;4.40;1.50;;;14.70;99.00;;;;;;4991118;28;20275;-76
2023/12/11 06:22:41;;;;;;;4.07;1.60;;;14.80;98.90;;;;;;4991270;28;20265;-76
2023/12/11 06:25:07;;;;;;;5.33;1.73;;;14.80;98.80;;;;;;4998430;28;20712;-76
2023/12/11 06:27:33;;;;;;;4.60;1.30;;;14.80;98.80;;;;;;5000326;28;20268;-77
2023/12/11 06:29:59;;;;;;;3.60;1.40;;;14.80;98.80;;;;;;4994247;28;20342;-77
2023/12/11 06:32:25;;;;;;;2.73;1.30;;;14.80;98.80;;;;;;4989867;28;20178;-77
2023/12/11 06:34:51;;;;;;;2.07;1.20;;;14.80;98.80;;;;;;4991120;28;20346;-77
2023/12/11 06:37:17;;;;;;;4.10;1.30;;;14.80;98.80;;;;;;4988675;28;20254;-77
2023/12/11 06:39:43;;;;;;;3.27;1.33;;;14.80;98.80;;;;;;4987208;28;20316;-77
2023/12/11 06:42:08;;;;;;;5.17;1.40;;;14.80;98.80;;;;;;4991066;28;20556;-78
2023/12/11 06:44:36;;;;;;;3.17;1.30;;;14.80;98.90;;;;;;4989495;28;20467;-78
2023/12/11 06:47:05;;;;;;;4.03;1.20;;;14.80;99.10;;;;;;5005685;28;20669;-78
2023/12/11 06:49:31;;;;;;;3.00;1.43;;;14.80;99.30;;;;;;4978013;28;20276;-77
2023/12/11 06:51:56;;;;;;;3.40;1.30;;;14.80;99.20;;;;;;5013283;28;20263;-77
2023/12/11 06:54:23;;;;;;;3.53;1.30;;;14.90;99.40;;;;;;5005715;28;20581;-77
2023/12/11 06:56:49;;;;;;;3.70;1.50;;;14.90;99.50;;;;;;5004616;28;20198;-78
2023/12/11 06:59:14;;;;;;;3.43;1.33;;;14.90;99.40;;;;;;5003444;28;20589;-77
2023/12/11 07:01:40;;;;;;;3.03;1.40;;;14.80;99.40;;;;;;5007954;28;20192;-78
2023/12/11 07:04:07;;;;;;;4.10;1.50;;;14.80;99.30;;;;;;5007060;28;20171;-77
2023/12/11 07:06:33;;;;;;;3.37;1.67;;;14.80;99.40;;;;;;5005265;28;20170;-77
2023/12/11 07:08:59;;;;;;;4.10;1.57;;;14.90;99.40;;;;;;5004935;28;20219;-77
2023/12/11 07:11:25;;;;;;;3.60;1.33;;;14.90;99.40;;;;;;5004702;28;20590;-77
2023/12/11 07:13:51;;;;;;;5.07;1.43;;;14.80;99.50;;;;;;5005869;28;20178;-78
2023/12/11 07:16:17;;;;;;;3.63;1.33;;;14.90;99.50;;;;;;5009825;28;20169;-77
2023/12/11 07:18:44;;;;;;;3.00;1.73;;;14.80;99.50;;;;;;5007071;28;20580;-77
2023/12/11 07:21:11;;;;;;;2.83;1.33;;;14.80;99.60;;;;;;5006371;28;20170;-77
2023/12/11 07:23:38;;;;;;;3.03;1.50;;;14.80;99.60;;;;;;5004651;28;20182;-78
2023/12/11 07:26:09;;;;;;;3.83;1.50;;;14.80;99.90;;;;;;5005297;28;20205;-78
2023/12/11 07:28:40;;;;;;;6.27;2.00;;;14.80;99.70;;;;;;5005051;28;20439;-77
2023/12/11 07:31:06;;;;;;;4.97;1.57;;;14.80;99.60;;;;;;5006024;28;20215;-78
2023/12/11 07:33:33;;;;;;;4.10;1.60;;;14.80;99.70;;;;;;5004019;28;20172;-77
2023/12/11 07:35:59;;;;;;;4.83;1.60;;;14.80;99.70;;;;;;5004496;28;20188;-78
2023/12/11 07:38:27;;;;;;;4.47;1.70;;;14.80;99.60;;;;;;5007024;28;20678;-77
2023/12/11 07:40:55;;;;;;;2.80;1.37;;;14.80;99.80;;;;;;5009260;28;20513;-78
2023/12/11 07:43:21;;;;;;;5.00;1.60;;;14.80;99.80;;;;;;5004694;28;20171;-77
2023/12/11 07:45:47;;;;;;;4.53;1.57;;;14.80;99.90;;;;;;5006899;28;20326;-78
2023/12/11 07:48:13;;;;;;;4.07;1.37;;;14.80;99.80;;;;;;5006388;28;20176;-78
2023/12/11 07:50:39;;;;;;;4.63;1.70;;;14.80;99.80;;;;;;5005576;28;20504;-77
2023/12/11 07:53:05;;;;;;;4.07;1.63;;;14.80;99.80;;;;;;5015188;28;20184;-77
2023/12/11 07:55:31;;;;;;;4.60;1.63;;;14.90;99.80;;;;;;5013825;28;20300;-78
2023/12/11 07:58:03;;;;;;;3.13;1.50;;;14.90;99.90;;;;;;5008416;28;20171;-78
2023/12/11 08:00:29;;;;;;;3.00;1.30;;;14.90;99.80;;;;;;5007387;28;20176;-78
2023/12/11 08:03:04;;;;;;;3.57;1.60;;;14.90;99.80;;;;;;5006313;28;20176;-77
2023/12/11 08:05:30;;;;;;;5.07;1.50;;;14.90;99.80;;;;;;5005206;28;20207;-77
2023/12/11 08:07:56;;;;;;;4.37;1.70;;;14.90;99.80;;;;;;5003535;28;20172;-78
2023/12/11 08:10:25;;;;;;;3.47;1.47;;;14.90;99.80;;;;;;5004564;28;20490;-76
2023/12/11 08:12:53;;;;;;;6.37;1.83;;;14.90;99.80;;;;;;5003692;28;20177;-77
2023/12/11 08:15:19;;;;;;;3.90;1.57;;;14.90;99.80;;;;;;5003075;28;20579;-77
2023/12/11 08:17:45;;;;;;;4.67;1.67;;;14.90;99.90;;;;;;5005188;28;20169;-78
2023/12/11 08:20:16;;;;;;;3.87;1.50;;;14.90;99.90;;;;;;5006080;28;20519;-78
2023/12/11 08:22:42;;;;;;;4.07;1.70;;;14.90;99.90;;;;;;5005425;28;20188;-77
2023/12/11 08:25:09;;;;;;;3.47;1.60;;;14.90;99.90;;;;;;4997252;28;20484;-77
2023/12/11 08:27:35;;;;;;;4.60;1.70;;;14.90;99.90;;;;;;4989623;28;20174;-77
2023/12/11 08:30:01;;;;;;;5.90;1.77;;;14.90;99.90;;;;;;4988531;28;20207;-77
2023/12/11 08:32:28;;;;;;;7.73;1.80;;;14.90;99.90;;;;;;4990424;28;20211;-76
2023/12/11 08:34:54;;;;;;;3.30;1.30;;;14.90;99.90;;;;;;4991556;28;20633;-76
2023/12/11 08:37:20;;;;;;;4.13;1.40;;;14.90;99.90;;;;;;4990009;28;20185;-76
2023/12/11 08:39:46;;;;;;;3.27;1.50;;;14.90;99.90;;;;;;4989412;28;20277;-76
2023/12/11 08:42:13;;;;;;;3.63;1.43;;;14.90;99.90;;;;;;4990606;28;20285;-77
2023/12/11 08:44:38;;;;;;;4.57;1.20;;;14.90;99.90;;;;;;4990099;28;20206;-77
2023/12/11 08:47:05;;;;;;;5.80;1.60;;;14.90;99.90;;;;;;5012929;28;20247;-77
2023/12/11 08:49:30;;;;;;;5.60;1.73;;;14.90;99.90;;;;;;4980589;28;20170;-77
2023/12/11 08:51:56;;;;;;;6.40;1.70;;;14.90;99.90;;;;;;4995759;28;20177;-77
2023/12/11 08:54:22;;;;;;;4.10;1.70;;;14.90;99.90;;;;;;4988610;28;20609;-77
2023/12/11 08:56:48;;;;;;;5.70;1.80;;;14.90;99.90;;;;;;4990620;28;20242;-77
2023/12/11 08:59:16;;;;;;;4.00;1.50;;;14.90;99.90;;;;;;4996547;28;20197;-77
2023/12/11 09:01:41;;;;;;;3.03;1.50;;;15.00;99.90;;;;;;4996928;28;20651;-77
2023/12/11 09:04:07;;;;;;;6.03;1.70;;;14.90;99.90;;;;;;4991066;28;20275;-77
2023/12/11 09:06:33;;;;;;;4.40;1.47;;;14.90;99.90;;;;;;4990606;28;20202;-77
2023/12/11 09:08:59;;;;;;;3.83;1.90;;;14.90;99.90;;;;;;4971867;28;20182;-77
2023/12/11 09:11:26;;;;;;;4.93;1.63;;;15.00;99.90;;;;;;4989269;28;20416;-77
2023/12/11 09:13:51;;;;;;;7.67;2.23;;;15.00;99.90;;;;;;4986724;28;20173;-78
2023/12/11 09:16:17;;;;;;;4.23;1.90;;;14.90;99.90;;;;;;4989192;28;20236;-78
2023/12/11 09:18:44;;;;;;;6.83;2.10;;;15.00;99.90;;;;;;4987916;28;20180;-78
2023/12/11 09:21:10;;;;;;;6.17;2.00;;;15.00;99.90;;;;;;4989014;28;20236;-78
2023/12/11 09:23:36;;;;;;;6.07;1.70;;;15.00;99.90;;;;;;4987972;28;20259;-78
2023/12/11 09:26:02;;;;;;;5.97;2.00;;;15.00;99.90;;;;;;4986626;28;20428;-78
2023/12/11 09:28:27;;;;;;;4.33;1.90;;;15.00;99.90;;;;;;4990219;28;20246;-78
2023/12/11 09:30:54;;;;;;;4.70;1.87;;;15.00;99.90;;;;;;4991616;28;20538;-78
2023/12/11 09:33:20;;;;;;;4.63;1.60;;;15.10;99.90;;;;;;4990617;28;20213;-79
2023/12/11 09:35:46;;;;;;;6.43;1.60;;;15.10;99.90;;;;;;4994788;28;20173;-78
2023/12/11 09:38:14;;;;;;;4.73;1.83;;;15.10;99.90;;;;;;4992611;28;20178;-78
2023/12/11 09:40:40;;;;;;;5.43;2.30;;;15.10;99.90;;;;;;4988289;28;20176;-77
2023/12/11 09:43:08;;;;;;;7.67;2.00;;;15.10;99.90;;;;;;4989165;28;20183;-77
2023/12/11 09:45:33;;;;;;;5.70;2.20;;;15.10;99.90;;;;;;4986263;28;20292;-77
2023/12/11 09:48:00;;;;;;;6.40;1.97;;;15.10;99.90;;;;;;4988493;28;20171;-77
2023/12/11 09:50:27;;;;;;;6.63;1.93;;;15.10;99.90;;;;;;4988308;28;20182;-78
2023/12/11 09:52:54;;;;;;;5.97;2.00;;;15.10;99.90;;;;;;4989240;28;20173;-78
2023/12/11 09:55:23;;;;;;;4.43;2.10;;;15.10;99.90;;;;;;4989400;28;20198;-76
2023/12/11 09:57:50;;;;;;;4.20;1.97;;;15.10;99.90;;;;;;4987423;28;20174;-77
2023/12/11 10:00:20;;;;;;;6.30;2.23;;;15.10;99.90;;;;;;4990433;28;20177;-78
2023/12/11 10:02:49;;;;;;;6.20;2.17;;;15.10;99.90;;;;;;4991196;28;20654;-77
2023/12/11 10:05:23;;;;;;;4.73;2.00;;;15.10;99.90;;;;;;4992758;28;20391;-77
2023/12/11 10:07:55;;;;;;;5.63;1.87;;;15.10;99.90;;;;;;4991219;28;20175;-77
2023/12/11 10:10:21;;;;;;;4.63;1.73;;;15.10;99.90;;;;;;4986648;28;20264;-77
2023/12/11 10:12:47;;;;;;;5.10;1.90;;;15.10;99.90;;;;;;4989346;28;20487;-77
2023/12/11 10:15:39;;;;;;;3.57;1.80;;;15.10;99.90;;;;;;4988273;28;20331;-77
2023/12/11 10:18:12;;;;;;;4.27;1.90;;;15.10;99.90;;;;;;4988849;28;20236;-80
2023/12/11 10:20:39;;;;;;;3.50;1.60;;;15.10;99.90;;;;;;4995250;28;20179;-81
2023/12/11 10:23:34;;;;;;;4.27;1.73;;;15.10;99.90;;;;;;4995286;28;20186;-80
2023/12/11 10:26:06;;;;;;;3.87;1.60;;;15.10;99.90;;;;;;4991894;28;20208;-80
2023/12/11 10:28:33;;;;;;;4.67;1.73;;;15.10;99.90;;;;;;4992935;28;20196;-80
2023/12/11 10:31:04;;;;;;;4.73;1.80;;;15.00;99.90;;;;;;4990993;28;20177;-80
2023/12/11 10:33:30;;;;;;;3.07;1.53;;;15.00;99.90;;;;;;5012120;28;20181;-80
2023/12/11 10:36:15;;;;;;;4.00;1.50;;;15.10;99.90;;;;;;5019115;28;20479;-81
2023/12/11 10:38:43;;;;;;;4.30;1.53;;;15.10;99.90;;;;;;5011054;28;20179;-80
2023/12/11 10:41:51;;;;;;;3.47;1.70;;;15.10;99.90;;;;;;5009925;28;20187;-80
2023/12/11 10:44:25;;;;;;;4.83;1.97;;;15.00;99.90;;;;;;5008295;28;20193;-80
2023/12/11 10:46:54;;;;;;;4.50;1.60;;;15.00;99.90;;;;;;5006308;28;20235;-81
2023/12/11 10:49:23;;;;;;;5.60;2.10;;;15.00;99.90;;;;;;5005076;28;20419;-81
2023/12/11 10:51:50;;;;;;;2.83;1.30;;;15.00;99.90;;;;;;5007681;28;20192;-81
2023/12/11 10:54:16;;;;;;;4.33;1.80;;;15.00;99.90;;;;;;5009239;28;20192;-81
2023/12/11 10:56:45;;;;;;;6.37;2.00;;;15.00;99.90;;;;;;5007986;28;20286;-81
2023/12/11 10:59:11;;;;;;;4.27;1.80;;;15.00;99.90;;;;;;5011902;28;20175;-81
2023/12/11 11:01:41;;;;;;;6.47;2.30;;;15.10;99.90;;;;;;5012241;28;20199;-81
2023/12/11 11:04:09;;;;;;;4.03;1.53;;;15.10;99.90;;;;;;5012845;28;20184;-81
2023/12/11 11:06:55;;;;;;;5.90;1.50;;;15.10;99.90;;;;;;5010180;28;20285;-80
2023/12/11 11:09:32;;;;;;;3.43;1.83;;;15.10;99.90;;;;;;5009428;28;20168;-80
2023/12/11 11:12:19;;;;;;;4.50;1.70;;;15.10;99.90;;;;;;5009913;28;20426;-81
2023/12/11 11:14:50;;;;;;;3.57;1.60;;;15.10;99.90;;;;;;5007145;28;20579;-80
2023/12/11 11:17:16;;;;;;;4.87;1.53;;;15.20;99.90;;;;;;5004362;28;20381;-78
2023/12/11 11:20:33;;;;;;;4.80;1.97;;;15.20;99.90;;;;;;5006431;28;20251;-83
2023/12/11 11:23:18;;;;;;;3.33;1.70;;;15.20;99.90;;;;;;4985588;28;20180;-81
2023/12/11 11:25:54;;;;;;;5.10;1.83;;;15.20;99.90;;;;;;5009699;28;20218;-80
2023/12/11 11:28:42;;;;;;;6.73;1.60;;;15.20;99.90;;;;;;5009319;28;20172;-80
2023/12/11 11:31:09;;;;;;;3.87;1.40;;;15.20;99.90;;;;;;5009125;28;20185;-79
2023/12/11 11:33:50;;;;;;;3.67;1.60;;;15.20;99.90;;;;;;5002822;28;20166;-79
2023/12/11 11:36:48;;;;;;;6.03;2.03;;;15.10;99.90;;;;;;5004401;28;20561;-80
2023/12/11 11:40:02;;;;;;;3.37;1.60;;;15.10;99.90;;;;;;4971653;28;20184;-80
2023/12/11 11:42:37;;;;;;;5.43;2.07;;;15.10;99.90;;;;;;4962347;28;20766;-80
2023/12/11 11:45:05;;;;;;;4.33;1.60;;;15.10;99.90;;;;;;4985516;28;20209;-82
2023/12/11 11:47:31;;;;;;;2.73;1.27;;;15.10;99.90;;;;;;4993612;28;20173;-82
2023/12/11 11:50:07;;;;;;;2.93;1.47;;;15.10;99.90;;;;;;4992465;28;20178;-82
2023/12/11 11:52:35;;;;;;;4.70;1.80;;;15.10;99.90;;;;;;4987873;28;20469;-82
2023/12/11 11:55:07;;;;;;;3.90;1.70;;;15.10;99.90;;;;;;4967625;28;20192;-83
2023/12/11 11:57:33;;;;;;;3.87;1.40;;;15.10;99.90;;;;;;4967143;28;20723;-83
2023/12/11 12:00:06;;;;;;;6.27;1.53;;;15.10;99.90;;;;;;4982086;28;20240;-83
2023/12/11 12:02:32;;;;;;;2.43;1.30;;;15.10;99.90;;;;;;4988342;28;20182;-82
2023/12/11 12:05:16;;;;;;;3.30;1.50;;;15.10;99.90;;;;;;4988298;28;20213;-82
2023/12/11 12:07:42;;;;;;;5.67;1.47;;;15.10;99.90;;;;;;4987934;28;20179;-83
2023/12/11 12:10:12;;;;;;;7.60;1.30;;;15.10;99.90;;;;;;4988457;28;20259;-82
2023/12/11 12:12:38;;;;;;;3.00;1.60;;;15.10;99.90;;;;;;4986655;28;20262;-82
2023/12/11 12:15:07;;;;;;;4.23;1.20;;;15.10;99.90;;;;;;4987005;28;20564;-82
2023/12/11 12:17:34;;;;;;;3.10;1.30;;;15.10;99.90;;;;;;4984923;28;20568;-82
2023/12/11 12:20:09;;;;;;;4.50;1.37;;;15.10;99.90;;;;;;4968888;28;20432;-82
2023/12/11 12:22:35;;;;;;;1.77;1.30;;;15.10;99.90;;;;;;4987784;28;20174;-83
2023/12/11 12:25:31;;;;;;;4.50;1.30;;;15.10;99.90;;;;;;4988049;28;20206;-83
2023/12/11 12:28:04;;;;;;;3.87;1.33;;;15.10;99.90;;;;;;4987359;28;20203;-82
2023/12/11 12:30:33;;;;;;;3.47;1.47;;;15.10;99.90;;;;;;4987886;28;20250;-82
2023/12/11 12:33:00;;;;;;;4.50;1.53;;;15.10;99.90;;;;;;4989079;28;20429;-81
2023/12/11 12:35:30;;;;;;;2.43;1.37;;;15.10;99.90;;;;;;4987205;28;20338;-81
2023/12/11 12:38:13;;;;;;;2.90;1.40;;;15.10;99.90;;;;;;4990012;28;20172;-81
2023/12/11 12:40:40;;;;;;;2.77;1.30;;;15.10;99.90;;;;;;4988893;28;20191;-81
2023/12/11 12:43:15;;;;;;;4.47;1.60;;;15.10;99.90;;;;;;4990281;28;20449;-81
2023/12/11 12:45:44;;;;;;;5.27;1.80;;;15.20;99.90;;;;;;4991694;28;20453;-80
2023/12/11 12:48:10;;;;;;;2.13;1.30;;;15.20;99.90;;;;;;4989303;28;20234;-80
2023/12/11 12:50:38;;;;;;;2.63;1.30;;;15.20;99.90;;;;;;4989460;28;20526;-80
2023/12/11 12:53:05;;;;;;;4.83;2.13;;;15.20;99.90;;;;;;4991257;28;20244;-79
2023/12/11 12:55:33;;;;;;;2.97;1.70;;;15.20;99.90;;;;;;4987177;28;20193;-79
2023/12/11 12:58:02;;;;;;;2.43;1.50;;;15.20;99.90;;;;;;4987383;28;20710;-79